sensor_id;sensor_type;location;lat;lon;timestamp;P1;durP1;ratioP1;P2;durP2;ratioP2
3791;SDS011;1911;53.768;11.474;2023-07-29T00:01:59;3.30;;;3.00;;
3791;SDS011;1911;53.768;11.474;2023-07-29T00:04:25;4.77;;;4.30;;
3791;SDS011;1911;53.768;11.474;2023-07-29T00:06:51;4.80;;;3.93;;
3791;SDS011;1911;53.768;11.474;2023-07-29T00:09:16;7.90;;;4.43;;
3791;SDS011;1911;53.768;11.474;2023-07-29T00:11:42;4.77;;;4.37;;
3791;SDS011;1911;53.768;11.474;2023-07-29T00:14:07;4.30;;;3.90;;
3791;SDS011;1911;53.768;11.474;2023-07-29T00:16:33;4.90;;;3.73;;
3791;SDS011;1911;53.768;11.474;2023-07-29T00:18:58;5.10;;;4.63;;
3791;SDS011;1911;53.768;11.474;2023-07-29T00:21:24;5.40;;;4.57;;
3791;SDS011;1911;53.768;11.474;2023-07-29T00:23:50;5.87;;;4.63;;
3791;SDS011;1911;53.768;11.474;2023-07-29T00:26:15;5.27;;;4.77;;
3791;SDS011;1911;53.768;11.474;2023-07-29T00:28:41;8.30;;;5.40;;
3791;SDS011;1911;53.768;11.474;2023-07-29T00:31:06;5.70;;;5.10;;
3791;SDS011;1911;53.768;11.474;2023-07-29T00:33:32;5.93;;;4.93;;
3791;SDS011;1911;53.768;11.474;2023-07-29T00:35:57;6.67;;;5.20;;
3791;SDS011;1911;53.768;11.474;2023-07-29T00:38:26;5.97;;;5.03;;
3791;SDS011;1911;53.768;11.474;2023-07-29T00:40:52;6.33;;;5.73;;
3791;SDS011;1911;53.768;11.474;2023-07-29T00:43:18;5.20;;;4.60;;
3791;SDS011;1911;53.768;11.474;2023-07-29T00:45:43;9.17;;;7.00;;
3791;SDS011;1911;53.768;11.474;2023-07-29T00:48:10;6.73;;;6.07;;
3791;SDS011;1911;53.768;11.474;2023-07-29T00:50:36;11.47;;;9.47;;
3791;SDS011;1911;53.768;11.474;2023-07-29T00:53:02;8.07;;;7.27;;
3791;SDS011;1911;53.768;11.474;2023-07-29T00:55:27;7.83;;;5.60;;
3791;SDS011;1911;53.768;11.474;2023-07-29T00:57:53;5.80;;;5.07;;
3791;SDS011;1911;53.768;11.474;2023-07-29T01:00:19;9.37;;;5.57;;
3791;SDS011;1911;53.768;11.474;2023-07-29T01:02:46;6.90;;;6.30;;
3791;SDS011;1911;53.768;11.474;2023-07-29T01:05:12;6.40;;;5.80;;
3791;SDS011;1911;53.768;11.474;2023-07-29T01:08:25;7.43;;;6.63;;
3791;SDS011;1911;53.768;11.474;2023-07-29T01:10:48;7.70;;;7.00;;
3791;SDS011;1911;53.768;11.474;2023-07-29T01:13:41;6.77;;;5.87;;
3791;SDS011;1911;53.768;11.474;2023-07-29T01:16:20;8.73;;;6.60;;
3791;SDS011;1911;53.768;11.474;2023-07-29T01:18:55;8.13;;;6.27;;
3791;SDS011;1911;53.768;11.474;2023-07-29T01:21:22;7.23;;;6.53;;
3791;SDS011;1911;53.768;11.474;2023-07-29T01:23:57;8.37;;;7.53;;
3791;SDS011;1911;53.768;11.474;2023-07-29T01:26:24;10.53;;;7.47;;
3791;SDS011;1911;53.768;11.474;2023-07-29T01:28:49;8.67;;;7.87;;
3791;SDS011;1911;53.768;11.474;2023-07-29T01:33:50;11.30;;;7.80;;
3791;SDS011;1911;53.768;11.474;2023-07-29T01:36:22;7.87;;;7.07;;
3791;SDS011;1911;53.768;11.474;2023-07-29T01:38:52;7.33;;;6.50;;
3791;SDS011;1911;53.768;11.474;2023-07-29T01:41:19;7.60;;;6.90;;
3791;SDS011;1911;53.768;11.474;2023-07-29T01:43:46;7.83;;;5.50;;
3791;SDS011;1911;53.768;11.474;2023-07-29T01:46:12;7.60;;;6.40;;
3791;SDS011;1911;53.768;11.474;2023-07-29T01:48:39;7.20;;;6.40;;
3791;SDS011;1911;53.768;11.474;2023-07-29T01:51:05;8.60;;;6.70;;
3791;SDS011;1911;53.768;11.474;2023-07-29T01:53:31;7.37;;;6.03;;
3791;SDS011;1911;53.768;11.474;2023-07-29T01:55:57;7.77;;;5.90;;
3791;SDS011;1911;53.768;11.474;2023-07-29T01:58:23;6.60;;;6.00;;
3791;SDS011;1911;53.768;11.474;2023-07-29T02:00:49;6.87;;;6.17;;
3791;SDS011;1911;53.768;11.474;2023-07-29T02:03:15;6.87;;;6.27;;
3791;SDS011;1911;53.768;11.474;2023-07-29T02:05:41;6.30;;;5.70;;
3791;SDS011;1911;53.768;11.474;2023-07-29T02:08:09;5.43;;;4.90;;
3791;SDS011;1911;53.768;11.474;2023-07-29T02:10:36;6.77;;;5.83;;
3791;SDS011;1911;53.768;11.474;2023-07-29T02:13:02;5.93;;;5.33;;
3791;SDS011;1911;53.768;11.474;2023-07-29T02:15:28;6.00;;;5.17;;
3791;SDS011;1911;53.768;11.474;2023-07-29T02:17:54;6.73;;;5.27;;
3791;SDS011;1911;53.768;11.474;2023-07-29T02:20:19;7.13;;;6.40;;
3791;SDS011;1911;53.768;11.474;2023-07-29T02:22:46;6.67;;;5.97;;
3791;SDS011;1911;53.768;11.474;2023-07-29T02:25:13;6.20;;;5.60;;
3791;SDS011;1911;53.768;11.474;2023-07-29T02:27:39;6.70;;;6.10;;
3791;SDS011;1911;53.768;11.474;2023-07-29T02:30:05;6.27;;;5.67;;
3791;SDS011;1911;53.768;11.474;2023-07-29T02:32:31;6.93;;;6.23;;
3791;SDS011;1911;53.768;11.474;2023-07-29T02:34:56;8.10;;;6.20;;
3791;SDS011;1911;53.768;11.474;2023-07-29T02:37:22;7.80;;;6.67;;
3791;SDS011;1911;53.768;11.474;2023-07-29T02:39:48;7.10;;;6.13;;
3791;SDS011;1911;53.768;11.474;2023-07-29T02:42:13;7.10;;;6.40;;
3791;SDS011;1911;53.768;11.474;2023-07-29T02:44:39;8.17;;;6.90;;
3791;SDS011;1911;53.768;11.474;2023-07-29T02:47:05;7.63;;;6.57;;
3791;SDS011;1911;53.768;11.474;2023-07-29T02:49:31;6.77;;;6.07;;
3791;SDS011;1911;53.768;11.474;2023-07-29T02:51:56;6.80;;;5.80;;
3791;SDS011;1911;53.768;11.474;2023-07-29T02:54:22;8.83;;;7.17;;
3791;SDS011;1911;53.768;11.474;2023-07-29T02:56:47;7.23;;;6.50;;
3791;SDS011;1911;53.768;11.474;2023-07-29T02:59:14;8.83;;;6.33;;
3791;SDS011;1911;53.768;11.474;2023-07-29T03:01:40;7.97;;;6.30;;
3791;SDS011;1911;53.768;11.474;2023-07-29T03:04:06;6.83;;;5.90;;
3791;SDS011;1911;53.768;11.474;2023-07-29T03:06:31;6.50;;;5.90;;
3791;SDS011;1911;53.768;11.474;2023-07-29T03:08:57;8.33;;;6.50;;
3791;SDS011;1911;53.768;11.474;2023-07-29T03:11:22;8.37;;;6.47;;
3791;SDS011;1911;53.768;11.474;2023-07-29T03:13:48;7.40;;;6.63;;
3791;SDS011;1911;53.768;11.474;2023-07-29T03:16:14;9.57;;;8.30;;
3791;SDS011;1911;53.768;11.474;2023-07-29T03:18:41;7.77;;;6.90;;
3791;SDS011;1911;53.768;11.474;2023-07-29T03:21:08;6.90;;;6.20;;
3791;SDS011;1911;53.768;11.474;2023-07-29T03:23:34;10.47;;;8.03;;
3791;SDS011;1911;53.768;11.474;2023-07-29T03:26:01;8.00;;;7.17;;
3791;SDS011;1911;53.768;11.474;2023-07-29T03:28:31;8.23;;;7.43;;
3791;SDS011;1911;53.768;11.474;2023-07-29T03:30:58;8.23;;;7.13;;
3791;SDS011;1911;53.768;11.474;2023-07-29T03:33:25;11.30;;;7.80;;
3791;SDS011;1911;53.768;11.474;2023-07-29T03:35:51;7.40;;;6.70;;
3791;SDS011;1911;53.768;11.474;2023-07-29T03:38:17;8.03;;;7.17;;
3791;SDS011;1911;53.768;11.474;2023-07-29T03:40:43;7.20;;;6.50;;
3791;SDS011;1911;53.768;11.474;2023-07-29T03:43:09;8.30;;;7.00;;
3791;SDS011;1911;53.768;11.474;2023-07-29T03:45:35;9.43;;;8.00;;
3791;SDS011;1911;53.768;11.474;2023-07-29T03:48:01;7.60;;;6.73;;
3791;SDS011;1911;53.768;11.474;2023-07-29T03:50:28;9.10;;;6.63;;
3791;SDS011;1911;53.768;11.474;2023-07-29T03:52:55;7.90;;;7.10;;
3791;SDS011;1911;53.768;11.474;2023-07-29T03:55:21;7.23;;;6.53;;
3791;SDS011;1911;53.768;11.474;2023-07-29T03:57:46;8.77;;;7.17;;
3791;SDS011;1911;53.768;11.474;2023-07-29T04:00:12;8.13;;;6.90;;
3791;SDS011;1911;53.768;11.474;2023-07-29T04:02:38;9.20;;;7.07;;
3791;SDS011;1911;53.768;11.474;2023-07-29T04:05:04;7.23;;;6.47;;
3791;SDS011;1911;53.768;11.474;2023-07-29T04:07:30;8.17;;;7.00;;
3791;SDS011;1911;53.768;11.474;2023-07-29T04:09:55;9.93;;;7.70;;
3791;SDS011;1911;53.768;11.474;2023-07-29T04:12:21;9.33;;;8.43;;
3791;SDS011;1911;53.768;11.474;2023-07-29T04:14:48;10.30;;;8.87;;
3791;SDS011;1911;53.768;11.474;2023-07-29T04:17:13;9.90;;;8.30;;
3791;SDS011;1911;53.768;11.474;2023-07-29T04:19:39;10.43;;;9.33;;
3791;SDS011;1911;53.768;11.474;2023-07-29T04:22:05;11.87;;;8.87;;
3791;SDS011;1911;53.768;11.474;2023-07-29T04:24:30;11.27;;;9.13;;
3791;SDS011;1911;53.768;11.474;2023-07-29T04:26:56;10.33;;;8.50;;
3791;SDS011;1911;53.768;11.474;2023-07-29T04:29:21;9.43;;;8.23;;
3791;SDS011;1911;53.768;11.474;2023-07-29T04:31:48;11.83;;;9.40;;
3791;SDS011;1911;53.768;11.474;2023-07-29T04:34:14;10.37;;;8.73;;
3791;SDS011;1911;53.768;11.474;2023-07-29T04:36:40;9.83;;;8.23;;
3791;SDS011;1911;53.768;11.474;2023-07-29T04:39:05;10.13;;;8.50;;
3791;SDS011;1911;53.768;11.474;2023-07-29T04:41:31;10.57;;;9.53;;
3791;SDS011;1911;53.768;11.474;2023-07-29T04:43:57;9.23;;;8.33;;
3791;SDS011;1911;53.768;11.474;2023-07-29T04:46:22;10.43;;;8.93;;
3791;SDS011;1911;53.768;11.474;2023-07-29T04:48:48;12.63;;;9.97;;
3791;SDS011;1911;53.768;11.474;2023-07-29T04:51:13;12.50;;;9.87;;
3791;SDS011;1911;53.768;11.474;2023-07-29T04:53:39;12.43;;;9.30;;
3791;SDS011;1911;53.768;11.474;2023-07-29T04:56:04;12.77;;;10.03;;
3791;SDS011;1911;53.768;11.474;2023-07-29T04:58:30;10.10;;;8.67;;
3791;SDS011;1911;53.768;11.474;2023-07-29T05:00:59;10.40;;;8.90;;
3791;SDS011;1911;53.768;11.474;2023-07-29T05:03:25;10.83;;;8.93;;
3791;SDS011;1911;53.768;11.474;2023-07-29T05:05:51;9.93;;;8.77;;
3791;SDS011;1911;53.768;11.474;2023-07-29T05:08:18;11.97;;;9.00;;
3791;SDS011;1911;53.768;11.474;2023-07-29T05:10:44;10.10;;;8.70;;
3791;SDS011;1911;53.768;11.474;2023-07-29T05:13:52;12.03;;;8.87;;
3791;SDS011;1911;53.768;11.474;2023-07-29T05:16:14;9.90;;;8.80;;
3791;SDS011;1911;53.768;11.474;2023-07-29T05:18:39;9.97;;;8.27;;
3791;SDS011;1911;53.768;11.474;2023-07-29T05:21:07;9.00;;;8.00;;
3791;SDS011;1911;53.768;11.474;2023-07-29T05:23:33;12.10;;;8.50;;
3791;SDS011;1911;53.768;11.474;2023-07-29T05:25:59;8.80;;;7.47;;
3791;SDS011;1911;53.768;11.474;2023-07-29T05:28:24;9.30;;;8.10;;
3791;SDS011;1911;53.768;11.474;2023-07-29T05:30:50;10.10;;;7.70;;
3791;SDS011;1911;53.768;11.474;2023-07-29T05:33:15;7.80;;;6.60;;
3791;SDS011;1911;53.768;11.474;2023-07-29T05:35:41;8.20;;;7.20;;
3791;SDS011;1911;53.768;11.474;2023-07-29T05:38:07;10.67;;;8.00;;
3791;SDS011;1911;53.768;11.474;2023-07-29T05:40:33;9.87;;;8.13;;
3791;SDS011;1911;53.768;11.474;2023-07-29T05:42:59;13.47;;;8.67;;
3791;SDS011;1911;53.768;11.474;2023-07-29T05:45:25;11.93;;;8.40;;
3791;SDS011;1911;53.768;11.474;2023-07-29T05:47:50;8.90;;;7.67;;
3791;SDS011;1911;53.768;11.474;2023-07-29T05:50:16;8.30;;;7.40;;
3791;SDS011;1911;53.768;11.474;2023-07-29T05:52:41;10.37;;;8.37;;
3791;SDS011;1911;53.768;11.474;2023-07-29T05:55:07;10.07;;;8.10;;
3791;SDS011;1911;53.768;11.474;2023-07-29T05:57:33;10.90;;;9.30;;
3791;SDS011;1911;53.768;11.474;2023-07-29T05:59:58;10.17;;;9.00;;
3791;SDS011;1911;53.768;11.474;2023-07-29T06:02:24;12.00;;;9.90;;
3791;SDS011;1911;53.768;11.474;2023-07-29T06:04:49;12.73;;;9.40;;
3791;SDS011;1911;53.768;11.474;2023-07-29T06:07:15;16.03;;;10.63;;
3791;SDS011;1911;53.768;11.474;2023-07-29T06:09:41;13.10;;;9.93;;
3791;SDS011;1911;53.768;11.474;2023-07-29T06:12:06;11.90;;;9.37;;
3791;SDS011;1911;53.768;11.474;2023-07-29T06:14:32;11.97;;;10.67;;
3791;SDS011;1911;53.768;11.474;2023-07-29T06:16:58;11.80;;;9.40;;
3791;SDS011;1911;53.768;11.474;2023-07-29T06:19:23;13.60;;;12.00;;
3791;SDS011;1911;53.768;11.474;2023-07-29T06:21:49;13.40;;;11.93;;
3791;SDS011;1911;53.768;11.474;2023-07-29T06:24:14;18.13;;;14.67;;
3791;SDS011;1911;53.768;11.474;2023-07-29T06:26:40;14.77;;;13.17;;
3791;SDS011;1911;53.768;11.474;2023-07-29T06:29:05;18.73;;;13.43;;
3791;SDS011;1911;53.768;11.474;2023-07-29T06:31:31;17.10;;;14.43;;
3791;SDS011;1911;53.768;11.474;2023-07-29T06:33:57;19.30;;;15.07;;
3791;SDS011;1911;53.768;11.474;2023-07-29T06:36:23;22.80;;;15.20;;
3791;SDS011;1911;53.768;11.474;2023-07-29T06:38:49;15.73;;;14.13;;
3791;SDS011;1911;53.768;11.474;2023-07-29T06:41:14;19.97;;;14.57;;
3791;SDS011;1911;53.768;11.474;2023-07-29T06:43:41;15.07;;;13.47;;
3791;SDS011;1911;53.768;11.474;2023-07-29T06:46:06;15.67;;;13.80;;
3791;SDS011;1911;53.768;11.474;2023-07-29T06:48:32;22.00;;;16.50;;
3791;SDS011;1911;53.768;11.474;2023-07-29T06:50:58;16.40;;;14.70;;
3791;SDS011;1911;53.768;11.474;2023-07-29T06:53:26;24.73;;;16.00;;
3791;SDS011;1911;53.768;11.474;2023-07-29T06:55:51;19.90;;;16.20;;
3791;SDS011;1911;53.768;11.474;2023-07-29T06:58:17;21.60;;;16.17;;
3791;SDS011;1911;53.768;11.474;2023-07-29T07:00:43;18.10;;;15.53;;
3791;SDS011;1911;53.768;11.474;2023-07-29T07:03:08;19.30;;;16.00;;
3791;SDS011;1911;53.768;11.474;2023-07-29T07:05:34;19.50;;;17.00;;
3791;SDS011;1911;53.768;11.474;2023-07-29T07:07:59;16.40;;;14.67;;
3791;SDS011;1911;53.768;11.474;2023-07-29T07:10:25;16.67;;;14.07;;
3791;SDS011;1911;53.768;11.474;2023-07-29T07:12:50;16.77;;;14.80;;
3791;SDS011;1911;53.768;11.474;2023-07-29T07:15:16;17.00;;;14.23;;
3791;SDS011;1911;53.768;11.474;2023-07-29T07:17:42;15.63;;;13.10;;
3791;SDS011;1911;53.768;11.474;2023-07-29T07:20:07;15.20;;;12.97;;
3791;SDS011;1911;53.768;11.474;2023-07-29T07:22:33;17.93;;;14.60;;
3791;SDS011;1911;53.768;11.474;2023-07-29T07:24:59;16.93;;;14.67;;
3791;SDS011;1911;53.768;11.474;2023-07-29T07:27:24;15.27;;;13.57;;
3791;SDS011;1911;53.768;11.474;2023-07-29T07:29:50;16.80;;;14.53;;
3791;SDS011;1911;53.768;11.474;2023-07-29T07:32:15;16.97;;;13.70;;
3791;SDS011;1911;53.768;11.474;2023-07-29T07:34:41;17.43;;;14.37;;
3791;SDS011;1911;53.768;11.474;2023-07-29T07:37:06;16.13;;;13.97;;
3791;SDS011;1911;53.768;11.474;2023-07-29T07:39:32;14.27;;;12.77;;
3791;SDS011;1911;53.768;11.474;2023-07-29T07:41:57;16.00;;;13.30;;
3791;SDS011;1911;53.768;11.474;2023-07-29T07:44:23;14.10;;;12.60;;
3791;SDS011;1911;53.768;11.474;2023-07-29T07:46:51;13.97;;;12.57;;
3791;SDS011;1911;53.768;11.474;2023-07-29T07:49:17;16.40;;;12.90;;
3791;SDS011;1911;53.768;11.474;2023-07-29T07:51:43;12.90;;;11.60;;
3791;SDS011;1911;53.768;11.474;2023-07-29T07:54:09;14.27;;;11.17;;
3791;SDS011;1911;53.768;11.474;2023-07-29T07:56:34;11.10;;;9.43;;
3791;SDS011;1911;53.768;11.474;2023-07-29T07:59:00;10.77;;;9.67;;
3791;SDS011;1911;53.768;11.474;2023-07-29T08:01:26;10.00;;;9.00;;
3791;SDS011;1911;53.768;11.474;2023-07-29T08:03:51;10.60;;;9.13;;
3791;SDS011;1911;53.768;11.474;2023-07-29T08:06:17;10.57;;;8.57;;
3791;SDS011;1911;53.768;11.474;2023-07-29T08:08:42;10.40;;;8.60;;
3791;SDS011;1911;53.768;11.474;2023-07-29T08:11:08;10.83;;;9.23;;
3791;SDS011;1911;53.768;11.474;2023-07-29T08:13:33;9.70;;;8.70;;
3791;SDS011;1911;53.768;11.474;2023-07-29T08:15:59;11.13;;;8.50;;
3791;SDS011;1911;53.768;11.474;2023-07-29T08:18:24;8.83;;;7.93;;
3791;SDS011;1911;53.768;11.474;2023-07-29T08:20:54;10.43;;;8.73;;
3791;SDS011;1911;53.768;11.474;2023-07-29T08:23:20;8.67;;;6.90;;
3791;SDS011;1911;53.768;11.474;2023-07-29T08:25:56;8.70;;;7.90;;
3791;SDS011;1911;53.768;11.474;2023-07-29T08:28:33;9.20;;;7.17;;
3791;SDS011;1911;53.768;11.474;2023-07-29T08:31:00;8.93;;;8.03;;
3791;SDS011;1911;53.768;11.474;2023-07-29T08:33:26;9.33;;;7.17;;
3791;SDS011;1911;53.768;11.474;2023-07-29T08:35:53;8.40;;;7.60;;
3791;SDS011;1911;53.768;11.474;2023-07-29T08:38:19;9.73;;;8.30;;
3791;SDS011;1911;53.768;11.474;2023-07-29T08:40:46;10.23;;;7.73;;
3791;SDS011;1911;53.768;11.474;2023-07-29T08:43:20;9.27;;;8.27;;
3791;SDS011;1911;53.768;11.474;2023-07-29T08:45:51;8.87;;;7.93;;
3791;SDS011;1911;53.768;11.474;2023-07-29T08:48:18;8.53;;;7.63;;
3791;SDS011;1911;53.768;11.474;2023-07-29T08:50:46;10.63;;;7.90;;
3791;SDS011;1911;53.768;11.474;2023-07-29T08:53:12;11.23;;;8.27;;
3791;SDS011;1911;53.768;11.474;2023-07-29T08:55:38;8.67;;;7.80;;
3791;SDS011;1911;53.768;11.474;2023-07-29T08:58:04;8.53;;;7.83;;
3791;SDS011;1911;53.768;11.474;2023-07-29T09:00:30;8.90;;;8.10;;
3791;SDS011;1911;53.768;11.474;2023-07-29T09:02:57;8.30;;;7.43;;
3791;SDS011;1911;53.768;11.474;2023-07-29T09:05:27;9.20;;;8.17;;
3791;SDS011;1911;53.768;11.474;2023-07-29T09:07:53;9.10;;;7.67;;
3791;SDS011;1911;53.768;11.474;2023-07-29T09:10:23;9.20;;;8.30;;
3791;SDS011;1911;53.768;11.474;2023-07-29T09:12:50;8.80;;;7.90;;
3791;SDS011;1911;53.768;11.474;2023-07-29T09:15:30;10.53;;;8.07;;
3791;SDS011;1911;53.768;11.474;2023-07-29T09:17:57;8.47;;;7.67;;
3791;SDS011;1911;53.768;11.474;2023-07-29T09:20:26;9.63;;;8.70;;
3791;SDS011;1911;53.768;11.474;2023-07-29T09:22:57;8.80;;;7.90;;
3791;SDS011;1911;53.768;11.474;2023-07-29T09:25:27;8.20;;;7.50;;
3791;SDS011;1911;53.768;11.474;2023-07-29T09:28:01;10.03;;;8.07;;
3791;SDS011;1911;53.768;11.474;2023-07-29T09:30:32;8.63;;;7.80;;
3791;SDS011;1911;53.768;11.474;2023-07-29T09:32:58;9.73;;;7.77;;
3791;SDS011;1911;53.768;11.474;2023-07-29T09:35:27;9.00;;;7.93;;
3791;SDS011;1911;53.768;11.474;2023-07-29T09:37:53;8.47;;;7.57;;
3791;SDS011;1911;53.768;11.474;2023-07-29T09:40:19;8.00;;;7.30;;
3791;SDS011;1911;53.768;11.474;2023-07-29T09:42:48;7.27;;;6.60;;
3791;SDS011;1911;53.768;11.474;2023-07-29T09:45:20;7.30;;;6.60;;
3791;SDS011;1911;53.768;11.474;2023-07-29T09:47:47;6.97;;;6.27;;
3791;SDS011;1911;53.768;11.474;2023-07-29T09:50:13;7.93;;;7.13;;
3791;SDS011;1911;53.768;11.474;2023-07-29T09:52:39;8.00;;;7.03;;
3791;SDS011;1911;53.768;11.474;2023-07-29T09:55:04;7.50;;;6.80;;
3791;SDS011;1911;53.768;11.474;2023-07-29T09:57:31;7.83;;;7.13;;
3791;SDS011;1911;53.768;11.474;2023-07-29T09:59:57;8.70;;;7.90;;
3791;SDS011;1911;53.768;11.474;2023-07-29T10:02:23;9.03;;;7.70;;
3791;SDS011;1911;53.768;11.474;2023-07-29T10:04:50;8.60;;;7.50;;
3791;SDS011;1911;53.768;11.474;2023-07-29T10:07:17;8.00;;;7.20;;
3791;SDS011;1911;53.768;11.474;2023-07-29T10:09:43;8.53;;;7.73;;
3791;SDS011;1911;53.768;11.474;2023-07-29T10:12:10;7.37;;;6.57;;
3791;SDS011;1911;53.768;11.474;2023-07-29T10:14:39;8.00;;;7.20;;
3791;SDS011;1911;53.768;11.474;2023-07-29T10:17:06;7.90;;;7.10;;
3791;SDS011;1911;53.768;11.474;2023-07-29T10:19:32;7.43;;;6.60;;
3791;SDS011;1911;53.768;11.474;2023-07-29T10:21:59;7.00;;;6.10;;
3791;SDS011;1911;53.768;11.474;2023-07-29T10:24:29;7.20;;;4.87;;
3791;SDS011;1911;53.768;11.474;2023-07-29T10:26:57;6.17;;;5.67;;
3791;SDS011;1911;53.768;11.474;2023-07-29T10:29:24;5.63;;;4.90;;
3791;SDS011;1911;53.768;11.474;2023-07-29T10:31:53;6.30;;;5.60;;
3791;SDS011;1911;53.768;11.474;2023-07-29T10:34:22;5.97;;;4.80;;
3791;SDS011;1911;53.768;11.474;2023-07-29T10:36:49;4.80;;;3.80;;
3791;SDS011;1911;53.768;11.474;2023-07-29T10:39:16;4.13;;;3.57;;
3791;SDS011;1911;53.768;11.474;2023-07-29T10:41:54;6.93;;;4.53;;
3791;SDS011;1911;53.768;11.474;2023-07-29T10:47:10;5.53;;;4.10;;
3791;SDS011;1911;53.768;11.474;2023-07-29T10:49:50;5.27;;;4.77;;
3791;SDS011;1911;53.768;11.474;2023-07-29T10:55:02;4.87;;;4.47;;
3791;SDS011;1911;53.768;11.474;2023-07-29T10:57:38;8.20;;;4.60;;
3791;SDS011;1911;53.768;11.474;2023-07-29T11:00:06;4.73;;;4.23;;
3791;SDS011;1911;53.768;11.474;2023-07-29T11:02:34;5.00;;;4.60;;
3791;SDS011;1911;53.768;11.474;2023-07-29T11:05:05;5.03;;;4.60;;
3791;SDS011;1911;53.768;11.474;2023-07-29T11:07:31;5.80;;;5.00;;
3791;SDS011;1911;53.768;11.474;2023-07-29T11:10:12;8.87;;;5.90;;
3791;SDS011;1911;53.768;11.474;2023-07-29T11:12:39;6.23;;;4.70;;
3791;SDS011;1911;53.768;11.474;2023-07-29T11:15:15;5.13;;;4.63;;
3791;SDS011;1911;53.768;11.474;2023-07-29T11:17:47;6.50;;;5.90;;
3791;SDS011;1911;53.768;11.474;2023-07-29T11:20:21;5.87;;;5.37;;
3791;SDS011;1911;53.768;11.474;2023-07-29T11:22:48;5.73;;;5.23;;
3791;SDS011;1911;53.768;11.474;2023-07-29T11:25:14;6.93;;;5.20;;
3791;SDS011;1911;53.768;11.474;2023-07-29T11:27:40;7.67;;;5.43;;
3791;SDS011;1911;53.768;11.474;2023-07-29T11:30:07;7.57;;;6.53;;
3791;SDS011;1911;53.768;11.474;2023-07-29T11:32:34;8.30;;;6.40;;
3791;SDS011;1911;53.768;11.474;2023-07-29T11:35:04;9.40;;;6.30;;
3791;SDS011;1911;53.768;11.474;2023-07-29T11:37:34;6.93;;;6.23;;
3791;SDS011;1911;53.768;11.474;2023-07-29T11:40:01;7.03;;;6.30;;
3791;SDS011;1911;53.768;11.474;2023-07-29T11:42:27;7.40;;;6.67;;
3791;SDS011;1911;53.768;11.474;2023-07-29T11:44:56;6.33;;;5.73;;
3791;SDS011;1911;53.768;11.474;2023-07-29T11:47:23;8.00;;;5.30;;
3791;SDS011;1911;53.768;11.474;2023-07-29T11:49:48;5.00;;;4.50;;
3791;SDS011;1911;53.768;11.474;2023-07-29T11:52:14;5.80;;;4.50;;
3791;SDS011;1911;53.768;11.474;2023-07-29T11:54:43;7.23;;;4.60;;
3791;SDS011;1911;53.768;11.474;2023-07-29T11:57:09;6.00;;;4.83;;
3791;SDS011;1911;53.768;11.474;2023-07-29T11:59:36;5.67;;;4.67;;
3791;SDS011;1911;53.768;11.474;2023-07-29T12:02:09;5.60;;;4.37;;
3791;SDS011;1911;53.768;11.474;2023-07-29T12:04:39;7.20;;;5.47;;
3791;SDS011;1911;53.768;11.474;2023-07-29T12:07:06;5.83;;;5.20;;
3791;SDS011;1911;53.768;11.474;2023-07-29T12:09:33;5.07;;;4.47;;
3791;SDS011;1911;53.768;11.474;2023-07-29T12:12:03;6.90;;;5.50;;
3791;SDS011;1911;53.768;11.474;2023-07-29T12:14:29;5.80;;;5.20;;
3791;SDS011;1911;53.768;11.474;2023-07-29T12:16:56;5.40;;;4.50;;
3791;SDS011;1911;53.768;11.474;2023-07-29T12:19:30;7.27;;;6.00;;
3791;SDS011;1911;53.768;11.474;2023-07-29T12:22:01;6.60;;;6.00;;
3791;SDS011;1911;53.768;11.474;2023-07-29T12:24:29;8.73;;;6.73;;
3791;SDS011;1911;53.768;11.474;2023-07-29T12:26:55;6.90;;;5.53;;
3791;SDS011;1911;53.768;11.474;2023-07-29T12:29:21;7.20;;;6.50;;
3791;SDS011;1911;53.768;11.474;2023-07-29T12:31:47;8.30;;;6.50;;
3791;SDS011;1911;53.768;11.474;2023-07-29T12:34:19;7.10;;;6.40;;
3791;SDS011;1911;53.768;11.474;2023-07-29T12:36:49;6.37;;;5.77;;
3791;SDS011;1911;53.768;11.474;2023-07-29T12:41:49;7.47;;;5.50;;
3791;SDS011;1911;53.768;11.474;2023-07-29T12:44:16;9.20;;;7.30;;
3791;SDS011;1911;53.768;11.474;2023-07-29T12:46:42;8.20;;;6.17;;
3791;SDS011;1911;53.768;11.474;2023-07-29T12:49:08;5.90;;;5.00;;
3791;SDS011;1911;53.768;11.474;2023-07-29T12:51:33;6.70;;;4.97;;
3791;SDS011;1911;53.768;11.474;2023-07-29T12:53:59;5.37;;;4.87;;
3791;SDS011;1911;53.768;11.474;2023-07-29T12:56:25;6.37;;;5.67;;
3791;SDS011;1911;53.768;11.474;2023-07-29T12:58:51;5.80;;;5.10;;
3791;SDS011;1911;53.768;11.474;2023-07-29T13:01:17;6.60;;;4.60;;
3791;SDS011;1911;53.768;11.474;2023-07-29T13:03:47;6.80;;;4.90;;
3791;SDS011;1911;53.768;11.474;2023-07-29T13:06:13;5.90;;;5.30;;
3791;SDS011;1911;53.768;11.474;2023-07-29T13:08:39;5.83;;;4.73;;
3791;SDS011;1911;53.768;11.474;2023-07-29T13:11:04;6.17;;;4.67;;
3791;SDS011;1911;53.768;11.474;2023-07-29T13:13:30;7.07;;;5.93;;
3791;SDS011;1911;53.768;11.474;2023-07-29T13:15:57;6.20;;;4.87;;
3791;SDS011;1911;53.768;11.474;2023-07-29T13:18:22;6.23;;;5.63;;
3791;SDS011;1911;53.768;11.474;2023-07-29T13:20:48;8.40;;;5.20;;
3791;SDS011;1911;53.768;11.474;2023-07-29T13:23:14;6.03;;;5.37;;
3791;SDS011;1911;53.768;11.474;2023-07-29T13:25:40;6.07;;;5.27;;
3791;SDS011;1911;53.768;11.474;2023-07-29T13:28:06;6.30;;;4.67;;
3791;SDS011;1911;53.768;11.474;2023-07-29T13:30:32;6.50;;;4.93;;
3791;SDS011;1911;53.768;11.474;2023-07-29T13:32:58;6.53;;;5.40;;
3791;SDS011;1911;53.768;11.474;2023-07-29T13:35:24;5.20;;;4.70;;
3791;SDS011;1911;53.768;11.474;2023-07-29T13:37:49;6.83;;;5.23;;
3791;SDS011;1911;53.768;11.474;2023-07-29T13:40:15;12.70;;;6.00;;
3791;SDS011;1911;53.768;11.474;2023-07-29T13:42:40;7.90;;;5.50;;
3791;SDS011;1911;53.768;11.474;2023-07-29T13:45:06;6.47;;;5.87;;
3791;SDS011;1911;53.768;11.474;2023-07-29T13:47:32;7.37;;;6.23;;
3791;SDS011;1911;53.768;11.474;2023-07-29T13:49:57;6.93;;;5.47;;
3791;SDS011;1911;53.768;11.474;2023-07-29T13:52:24;6.23;;;5.63;;
3791;SDS011;1911;53.768;11.474;2023-07-29T13:54:49;5.90;;;5.30;;
3791;SDS011;1911;53.768;11.474;2023-07-29T13:57:15;5.80;;;5.23;;
3791;SDS011;1911;53.768;11.474;2023-07-29T13:59:40;7.00;;;5.23;;
3791;SDS011;1911;53.768;11.474;2023-07-29T14:02:06;5.37;;;4.73;;
3791;SDS011;1911;53.768;11.474;2023-07-29T14:04:32;6.30;;;5.40;;
3791;SDS011;1911;53.768;11.474;2023-07-29T14:06:58;7.30;;;5.67;;
3791;SDS011;1911;53.768;11.474;2023-07-29T14:09:24;5.50;;;5.00;;
3791;SDS011;1911;53.768;11.474;2023-07-29T14:11:50;5.63;;;5.10;;
3791;SDS011;1911;53.768;11.474;2023-07-29T14:14:16;6.30;;;5.47;;
3791;SDS011;1911;53.768;11.474;2023-07-29T14:16:42;4.80;;;4.40;;
3791;SDS011;1911;53.768;11.474;2023-07-29T14:19:07;6.97;;;5.20;;
3791;SDS011;1911;53.768;11.474;2023-07-29T14:21:33;6.00;;;5.40;;
3791;SDS011;1911;53.768;11.474;2023-07-29T14:23:58;5.47;;;4.70;;
3791;SDS011;1911;53.768;11.474;2023-07-29T14:26:26;5.67;;;4.80;;
3791;SDS011;1911;53.768;11.474;2023-07-29T14:28:52;5.23;;;4.73;;
3791;SDS011;1911;53.768;11.474;2023-07-29T14:31:17;5.17;;;4.30;;
3791;SDS011;1911;53.768;11.474;2023-07-29T14:33:43;6.40;;;5.07;;
3791;SDS011;1911;53.768;11.474;2023-07-29T14:36:09;5.90;;;5.23;;
3791;SDS011;1911;53.768;11.474;2023-07-29T14:38:35;6.13;;;5.40;;
3791;SDS011;1911;53.768;11.474;2023-07-29T14:41:01;6.43;;;5.00;;
3791;SDS011;1911;53.768;11.474;2023-07-29T14:43:27;7.23;;;5.37;;
3791;SDS011;1911;53.768;11.474;2023-07-29T14:45:53;6.80;;;5.87;;
3791;SDS011;1911;53.768;11.474;2023-07-29T14:48:19;6.00;;;4.40;;
3791;SDS011;1911;53.768;11.474;2023-07-29T14:50:44;5.87;;;5.37;;
3791;SDS011;1911;53.768;11.474;2023-07-29T14:53:10;5.43;;;4.93;;
3791;SDS011;1911;53.768;11.474;2023-07-29T14:55:36;6.23;;;5.60;;
3791;SDS011;1911;53.768;11.474;2023-07-29T14:58:02;7.47;;;5.80;;
3791;SDS011;1911;53.768;11.474;2023-07-29T15:00:28;5.23;;;4.73;;
3791;SDS011;1911;53.768;11.474;2023-07-29T15:02:54;7.20;;;5.57;;
3791;SDS011;1911;53.768;11.474;2023-07-29T15:05:20;6.20;;;5.53;;